sensor_id;sensor_type;location;lat;lon;timestamp;P1;durP1;ratioP1;P2;durP2;ratioP2
80233;SDS011;69712;42.142;24.766;2023-07-29T00:01:43;8.27;;;4.50;;
80233;SDS011;69712;42.142;24.766;2023-07-29T00:04:09;5.97;;;4.10;;
80233;SDS011;69712;42.142;24.766;2023-07-29T00:06:35;8.75;;;4.20;;
80233;SDS011;69712;42.142;24.766;2023-07-29T00:09:01;6.88;;;4.03;;
80233;SDS011;69712;42.142;24.766;2023-07-29T00:11:28;7.63;;;4.20;;
80233;SDS011;69712;42.142;24.766;2023-07-29T00:13:53;7.25;;;4.45;;
80233;SDS011;69712;42.142;24.766;2023-07-29T00:16:19;7.45;;;4.05;;
80233;SDS011;69712;42.142;24.766;2023-07-29T00:18:48;7.18;;;4.00;;
80233;SDS011;69712;42.142;24.766;2023-07-29T00:21:14;6.00;;;3.92;;
80233;SDS011;69712;42.142;24.766;2023-07-29T00:23:40;5.60;;;3.80;;
80233;SDS011;69712;42.142;24.766;2023-07-29T00:26:06;5.43;;;3.63;;
80233;SDS011;69712;42.142;24.766;2023-07-29T00:28:31;5.70;;;3.80;;
80233;SDS011;69712;42.142;24.766;2023-07-29T00:30:57;7.25;;;4.10;;
80233;SDS011;69712;42.142;24.766;2023-07-29T00:33:23;6.55;;;3.95;;
80233;SDS011;69712;42.142;24.766;2023-07-29T00:35:49;6.45;;;4.00;;
80233;SDS011;69712;42.142;24.766;2023-07-29T00:38:14;5.80;;;4.00;;
80233;SDS011;69712;42.142;24.766;2023-07-29T00:40:40;5.28;;;3.90;;
80233;SDS011;69712;42.142;24.766;2023-07-29T00:43:06;4.72;;;3.90;;
80233;SDS011;69712;42.142;24.766;2023-07-29T00:45:32;6.40;;;4.25;;
80233;SDS011;69712;42.142;24.766;2023-07-29T00:47:59;5.28;;;4.05;;
80233;SDS011;69712;42.142;24.766;2023-07-29T00:50:25;5.80;;;3.83;;
80233;SDS011;69712;42.142;24.766;2023-07-29T00:52:53;6.03;;;4.22;;
80233;SDS011;69712;42.142;24.766;2023-07-29T00:55:19;6.10;;;4.05;;
80233;SDS011;69712;42.142;24.766;2023-07-29T00:57:45;8.10;;;4.28;;
80233;SDS011;69712;42.142;24.766;2023-07-29T01:00:13;8.52;;;4.15;;
80233;SDS011;69712;42.142;24.766;2023-07-29T01:02:41;6.10;;;4.20;;
80233;SDS011;69712;42.142;24.766;2023-07-29T01:05:11;6.53;;;3.78;;
80233;SDS011;69712;42.142;24.766;2023-07-29T01:10:10;9.07;;;4.20;;
80233;SDS011;69712;42.142;24.766;2023-07-29T01:13:01;6.28;;;4.10;;
80233;SDS011;69712;42.142;24.766;2023-07-29T01:15:49;5.82;;;4.13;;
80233;SDS011;69712;42.142;24.766;2023-07-29T01:18:23;4.78;;;3.85;;
80233;SDS011;69712;42.142;24.766;2023-07-29T01:20:56;9.02;;;4.00;;
80233;SDS011;69712;42.142;24.766;2023-07-29T01:23:25;7.47;;;3.90;;
80233;SDS011;69712;42.142;24.766;2023-07-29T01:25:54;6.53;;;3.92;;
80233;SDS011;69712;42.142;24.766;2023-07-29T01:28:20;5.80;;;3.95;;
80233;SDS011;69712;42.142;24.766;2023-07-29T01:30:46;7.38;;;3.88;;
80233;SDS011;69712;42.142;24.766;2023-07-29T01:33:18;8.18;;;3.80;;
80233;SDS011;69712;42.142;24.766;2023-07-29T01:36:11;7.63;;;3.95;;
80233;SDS011;69712;42.142;24.766;2023-07-29T01:38:40;6.82;;;4.18;;
80233;SDS011;69712;42.142;24.766;2023-07-29T01:41:09;5.47;;;3.70;;
80233;SDS011;69712;42.142;24.766;2023-07-29T01:43:36;7.95;;;3.80;;
80233;SDS011;69712;42.142;24.766;2023-07-29T01:46:09;5.72;;;3.90;;
80233;SDS011;69712;42.142;24.766;2023-07-29T01:48:38;8.10;;;4.22;;
80233;SDS011;69712;42.142;24.766;2023-07-29T01:51:05;5.25;;;3.75;;
80233;SDS011;69712;42.142;24.766;2023-07-29T01:53:31;6.93;;;4.40;;
80233;SDS011;69712;42.142;24.766;2023-07-29T01:55:57;6.65;;;4.00;;
80233;SDS011;69712;42.142;24.766;2023-07-29T01:58:22;6.13;;;3.80;;
80233;SDS011;69712;42.142;24.766;2023-07-29T02:00:48;6.80;;;4.00;;
80233;SDS011;69712;42.142;24.766;2023-07-29T02:03:14;8.43;;;4.95;;
80233;SDS011;69712;42.142;24.766;2023-07-29T02:05:40;7.53;;;5.88;;
80233;SDS011;69712;42.142;24.766;2023-07-29T02:11:02;8.45;;;5.65;;
80233;SDS011;69712;42.142;24.766;2023-07-29T02:13:28;8.68;;;5.65;;
80233;SDS011;69712;42.142;24.766;2023-07-29T02:15:53;7.78;;;5.55;;
80233;SDS011;69712;42.142;24.766;2023-07-29T02:18:19;9.75;;;5.80;;
80233;SDS011;69712;42.142;24.766;2023-07-29T02:20:45;6.78;;;5.05;;
80233;SDS011;69712;42.142;24.766;2023-07-29T02:23:14;9.23;;;5.68;;
80233;SDS011;69712;42.142;24.766;2023-07-29T02:25:41;7.93;;;5.63;;
80233;SDS011;69712;42.142;24.766;2023-07-29T02:28:07;9.13;;;5.90;;
80233;SDS011;69712;42.142;24.766;2023-07-29T02:30:32;9.85;;;5.70;;
80233;SDS011;69712;42.142;24.766;2023-07-29T02:32:58;8.07;;;5.57;;
80233;SDS011;69712;42.142;24.766;2023-07-29T02:35:26;7.20;;;5.40;;
80233;SDS011;69712;42.142;24.766;2023-07-29T02:37:52;10.15;;;5.85;;
80233;SDS011;69712;42.142;24.766;2023-07-29T02:40:18;7.72;;;5.85;;
80233;SDS011;69712;42.142;24.766;2023-07-29T02:42:45;8.25;;;5.55;;
80233;SDS011;69712;42.142;24.766;2023-07-29T02:45:11;13.50;;;5.63;;
80233;SDS011;69712;42.142;24.766;2023-07-29T02:47:37;10.93;;;5.60;;
80233;SDS011;69712;42.142;24.766;2023-07-29T02:50:03;9.07;;;5.47;;
80233;SDS011;69712;42.142;24.766;2023-07-29T02:52:29;8.38;;;5.55;;
80233;SDS011;69712;42.142;24.766;2023-07-29T02:54:55;6.90;;;5.55;;
80233;SDS011;69712;42.142;24.766;2023-07-29T02:57:21;8.85;;;5.50;;
80233;SDS011;69712;42.142;24.766;2023-07-29T02:59:46;7.88;;;5.10;;
80233;SDS011;69712;42.142;24.766;2023-07-29T03:02:12;9.13;;;5.70;;
80233;SDS011;69712;42.142;24.766;2023-07-29T03:04:38;9.02;;;5.40;;
80233;SDS011;69712;42.142;24.766;2023-07-29T03:07:03;7.80;;;5.35;;
80233;SDS011;69712;42.142;24.766;2023-07-29T03:09:31;9.18;;;5.28;;
80233;SDS011;69712;42.142;24.766;2023-07-29T03:11:58;6.78;;;5.30;;
80233;SDS011;69712;42.142;24.766;2023-07-29T03:14:24;7.95;;;5.53;;
80233;SDS011;69712;42.142;24.766;2023-07-29T03:16:50;8.55;;;5.80;;
80233;SDS011;69712;42.142;24.766;2023-07-29T03:19:15;7.07;;;5.38;;
80233;SDS011;69712;42.142;24.766;2023-07-29T03:21:41;6.70;;;5.38;;
80233;SDS011;69712;42.142;24.766;2023-07-29T03:24:07;8.30;;;5.72;;
80233;SDS011;69712;42.142;24.766;2023-07-29T03:26:33;6.75;;;5.40;;
80233;SDS011;69712;42.142;24.766;2023-07-29T03:28:58;7.32;;;5.47;;
80233;SDS011;69712;42.142;24.766;2023-07-29T03:31:24;6.38;;;5.32;;
80233;SDS011;69712;42.142;24.766;2023-07-29T03:33:50;9.25;;;5.10;;
80233;SDS011;69712;42.142;24.766;2023-07-29T03:36:15;8.05;;;5.07;;
80233;SDS011;69712;42.142;24.766;2023-07-29T03:38:41;6.18;;;5.07;;
80233;SDS011;69712;42.142;24.766;2023-07-29T03:41:10;8.40;;;5.47;;
80233;SDS011;69712;42.142;24.766;2023-07-29T03:43:35;8.98;;;5.05;;
80233;SDS011;69712;42.142;24.766;2023-07-29T03:46:01;6.95;;;5.20;;
80233;SDS011;69712;42.142;24.766;2023-07-29T03:48:27;8.45;;;5.65;;
80233;SDS011;69712;42.142;24.766;2023-07-29T03:50:53;8.18;;;5.50;;
80233;SDS011;69712;42.142;24.766;2023-07-29T03:53:19;7.50;;;5.30;;
80233;SDS011;69712;42.142;24.766;2023-07-29T03:55:45;6.85;;;5.18;;
80233;SDS011;69712;42.142;24.766;2023-07-29T03:58:11;6.57;;;5.30;;
80233;SDS011;69712;42.142;24.766;2023-07-29T04:00:37;6.82;;;5.07;;
80233;SDS011;69712;42.142;24.766;2023-07-29T04:03:03;7.72;;;5.70;;
80233;SDS011;69712;42.142;24.766;2023-07-29T04:05:29;7.50;;;5.70;;
80233;SDS011;69712;42.142;24.766;2023-07-29T04:07:56;9.75;;;5.53;;
80233;SDS011;69712;42.142;24.766;2023-07-29T04:10:45;6.20;;;5.10;;
80233;SDS011;69712;42.142;24.766;2023-07-29T04:13:11;8.23;;;5.43;;
80233;SDS011;69712;42.142;24.766;2023-07-29T04:15:37;6.32;;;5.40;;
80233;SDS011;69712;42.142;24.766;2023-07-29T04:18:02;6.65;;;5.30;;
80233;SDS011;69712;42.142;24.766;2023-07-29T04:20:28;7.68;;;5.80;;
80233;SDS011;69712;42.142;24.766;2023-07-29T04:22:54;7.97;;;5.45;;
80233;SDS011;69712;42.142;24.766;2023-07-29T04:25:20;6.85;;;5.05;;
80233;SDS011;69712;42.142;24.766;2023-07-29T04:27:45;5.85;;;4.72;;
80233;SDS011;69712;42.142;24.766;2023-07-29T04:30:11;6.13;;;5.00;;
80233;SDS011;69712;42.142;24.766;2023-07-29T04:32:37;10.13;;;5.22;;
80233;SDS011;69712;42.142;24.766;2023-07-29T04:35:02;9.35;;;5.00;;
80233;SDS011;69712;42.142;24.766;2023-07-29T04:37:28;8.43;;;5.15;;
80233;SDS011;69712;42.142;24.766;2023-07-29T04:39:54;7.65;;;5.22;;
80233;SDS011;69712;42.142;24.766;2023-07-29T04:42:20;6.35;;;5.20;;
80233;SDS011;69712;42.142;24.766;2023-07-29T04:44:45;9.90;;;5.05;;
80233;SDS011;69712;42.142;24.766;2023-07-29T04:47:11;6.90;;;5.00;;
80233;SDS011;69712;42.142;24.766;2023-07-29T04:49:37;11.07;;;5.43;;
80233;SDS011;69712;42.142;24.766;2023-07-29T04:52:02;5.72;;;5.10;;
80233;SDS011;69712;42.142;24.766;2023-07-29T04:54:28;9.93;;;5.03;;
80233;SDS011;69712;42.142;24.766;2023-07-29T04:56:54;8.38;;;5.38;;
80233;SDS011;69712;42.142;24.766;2023-07-29T04:59:20;11.07;;;5.68;;
80233;SDS011;69712;42.142;24.766;2023-07-29T05:01:45;8.70;;;5.30;;
80233;SDS011;69712;42.142;24.766;2023-07-29T05:04:12;8.95;;;5.32;;
80233;SDS011;69712;42.142;24.766;2023-07-29T05:06:38;9.65;;;5.70;;
80233;SDS011;69712;42.142;24.766;2023-07-29T05:09:16;6.65;;;5.20;;
80233;SDS011;69712;42.142;24.766;2023-07-29T05:11:43;7.28;;;5.80;;
80233;SDS011;69712;42.142;24.766;2023-07-29T05:14:16;10.77;;;5.75;;
80233;SDS011;69712;42.142;24.766;2023-07-29T05:16:43;7.95;;;5.20;;
80233;SDS011;69712;42.142;24.766;2023-07-29T05:19:09;7.45;;;5.68;;
80233;SDS011;69712;42.142;24.766;2023-07-29T05:21:35;9.40;;;5.63;;
80233;SDS011;69712;42.142;24.766;2023-07-29T05:24:01;8.68;;;5.60;;
80233;SDS011;69712;42.142;24.766;2023-07-29T05:26:27;10.20;;;5.47;;
80233;SDS011;69712;42.142;24.766;2023-07-29T05:28:53;11.82;;;5.88;;
80233;SDS011;69712;42.142;24.766;2023-07-29T05:31:19;7.15;;;5.60;;
80233;SDS011;69712;42.142;24.766;2023-07-29T05:33:45;10.50;;;5.40;;
80233;SDS011;69712;42.142;24.766;2023-07-29T05:36:10;8.75;;;5.43;;
80233;SDS011;69712;42.142;24.766;2023-07-29T05:38:36;7.30;;;5.00;;
80233;SDS011;69712;42.142;24.766;2023-07-29T05:41:02;9.02;;;4.95;;
80233;SDS011;69712;42.142;24.766;2023-07-29T05:43:28;7.90;;;4.60;;
80233;SDS011;69712;42.142;24.766;2023-07-29T05:45:53;11.95;;;4.93;;
80233;SDS011;69712;42.142;24.766;2023-07-29T05:48:19;7.07;;;5.10;;
80233;SDS011;69712;42.142;24.766;2023-07-29T05:50:45;7.93;;;4.90;;
80233;SDS011;69712;42.142;24.766;2023-07-29T05:53:11;8.50;;;5.20;;
80233;SDS011;69712;42.142;24.766;2023-07-29T05:55:36;8.73;;;5.22;;
80233;SDS011;69712;42.142;24.766;2023-07-29T05:58:02;7.78;;;4.97;;
80233;SDS011;69712;42.142;24.766;2023-07-29T06:00:28;7.13;;;4.90;;
80233;SDS011;69712;42.142;24.766;2023-07-29T06:02:53;12.18;;;5.38;;
80233;SDS011;69712;42.142;24.766;2023-07-29T06:05:19;10.30;;;5.45;;
80233;SDS011;69712;42.142;24.766;2023-07-29T06:07:57;8.55;;;5.00;;
80233;SDS011;69712;42.142;24.766;2023-07-29T06:10:33;9.77;;;4.90;;
80233;SDS011;69712;42.142;24.766;2023-07-29T06:13:00;8.50;;;5.15;;
80233;SDS011;69712;42.142;24.766;2023-07-29T06:15:26;10.80;;;4.72;;
80233;SDS011;69712;42.142;24.766;2023-07-29T06:17:53;7.03;;;4.57;;
80233;SDS011;69712;42.142;24.766;2023-07-29T06:20:18;9.93;;;4.47;;
80233;SDS011;69712;42.142;24.766;2023-07-29T06:22:44;5.78;;;4.30;;
80233;SDS011;69712;42.142;24.766;2023-07-29T06:25:10;9.98;;;4.82;;
80233;SDS011;69712;42.142;24.766;2023-07-29T06:27:36;10.13;;;4.53;;
80233;SDS011;69712;42.142;24.766;2023-07-29T06:30:07;8.10;;;4.78;;
80233;SDS011;69712;42.142;24.766;2023-07-29T06:32:33;8.37;;;4.40;;
80233;SDS011;69712;42.142;24.766;2023-07-29T06:34:59;7.70;;;4.03;;
80233;SDS011;69712;42.142;24.766;2023-07-29T06:37:25;5.22;;;4.30;;
80233;SDS011;69712;42.142;24.766;2023-07-29T06:39:51;7.10;;;3.90;;
80233;SDS011;69712;42.142;24.766;2023-07-29T06:42:16;12.38;;;4.20;;
80233;SDS011;69712;42.142;24.766;2023-07-29T06:44:42;5.53;;;3.80;;
80233;SDS011;69712;42.142;24.766;2023-07-29T06:47:10;7.57;;;4.43;;
80233;SDS011;69712;42.142;24.766;2023-07-29T06:49:36;5.40;;;3.80;;
80233;SDS011;69712;42.142;24.766;2023-07-29T06:52:02;7.20;;;3.70;;
80233;SDS011;69712;42.142;24.766;2023-07-29T06:54:28;6.22;;;3.70;;
80233;SDS011;69712;42.142;24.766;2023-07-29T06:56:53;7.53;;;3.80;;
80233;SDS011;69712;42.142;24.766;2023-07-29T06:59:19;6.25;;;3.63;;
80233;SDS011;69712;42.142;24.766;2023-07-29T07:01:46;6.57;;;3.70;;
80233;SDS011;69712;42.142;24.766;2023-07-29T07:04:12;7.18;;;3.88;;
80233;SDS011;69712;42.142;24.766;2023-07-29T07:06:37;8.73;;;4.50;;
80233;SDS011;69712;42.142;24.766;2023-07-29T07:09:03;8.48;;;4.07;;
80233;SDS011;69712;42.142;24.766;2023-07-29T07:11:29;8.30;;;4.20;;
80233;SDS011;69712;42.142;24.766;2023-07-29T07:13:54;9.13;;;3.70;;
80233;SDS011;69712;42.142;24.766;2023-07-29T07:16:20;7.43;;;3.78;;
80233;SDS011;69712;42.142;24.766;2023-07-29T07:18:46;9.18;;;4.07;;
80233;SDS011;69712;42.142;24.766;2023-07-29T07:21:11;8.57;;;4.00;;
80233;SDS011;69712;42.142;24.766;2023-07-29T07:23:38;8.63;;;4.03;;
80233;SDS011;69712;42.142;24.766;2023-07-29T07:26:04;7.18;;;4.00;;
80233;SDS011;69712;42.142;24.766;2023-07-29T07:28:30;8.00;;;4.43;;
80233;SDS011;69712;42.142;24.766;2023-07-29T07:30:55;8.13;;;3.70;;
80233;SDS011;69712;42.142;24.766;2023-07-29T07:33:22;7.40;;;3.90;;
80233;SDS011;69712;42.142;24.766;2023-07-29T07:35:47;10.00;;;4.18;;
80233;SDS011;69712;42.142;24.766;2023-07-29T07:38:13;7.95;;;4.20;;
80233;SDS011;69712;42.142;24.766;2023-07-29T07:40:39;8.75;;;4.07;;
80233;SDS011;69712;42.142;24.766;2023-07-29T07:43:04;6.88;;;3.90;;
80233;SDS011;69712;42.142;24.766;2023-07-29T07:45:31;8.13;;;4.40;;
80233;SDS011;69712;42.142;24.766;2023-07-29T07:47:57;7.38;;;4.20;;
80233;SDS011;69712;42.142;24.766;2023-07-29T07:50:24;7.43;;;4.20;;
80233;SDS011;69712;42.142;24.766;2023-07-29T07:52:49;8.70;;;4.35;;
80233;SDS011;69712;42.142;24.766;2023-07-29T07:55:15;11.35;;;4.50;;
80233;SDS011;69712;42.142;24.766;2023-07-29T07:57:41;7.97;;;3.95;;
80233;SDS011;69712;42.142;24.766;2023-07-29T08:00:07;10.15;;;4.63;;
80233;SDS011;69712;42.142;24.766;2023-07-29T08:02:33;11.38;;;4.30;;
80233;SDS011;69712;42.142;24.766;2023-07-29T08:04:58;14.25;;;5.00;;
80233;SDS011;69712;42.142;24.766;2023-07-29T08:07:24;7.75;;;4.70;;
80233;SDS011;69712;42.142;24.766;2023-07-29T08:09:50;6.43;;;4.15;;
80233;SDS011;69712;42.142;24.766;2023-07-29T08:12:16;6.90;;;4.82;;
80233;SDS011;69712;42.142;24.766;2023-07-29T08:14:41;8.05;;;4.20;;
80233;SDS011;69712;42.142;24.766;2023-07-29T08:17:07;10.77;;;4.72;;
80233;SDS011;69712;42.142;24.766;2023-07-29T08:19:33;7.85;;;4.70;;
80233;SDS011;69712;42.142;24.766;2023-07-29T08:22:01;11.38;;;3.80;;
80233;SDS011;69712;42.142;24.766;2023-07-29T08:24:28;9.63;;;4.32;;
80233;SDS011;69712;42.142;24.766;2023-07-29T08:26:53;6.35;;;4.25;;
80233;SDS011;69712;42.142;24.766;2023-07-29T08:29:19;9.63;;;4.10;;
80233;SDS011;69712;42.142;24.766;2023-07-29T08:31:45;5.97;;;4.30;;
80233;SDS011;69712;42.142;24.766;2023-07-29T08:34:11;6.88;;;4.40;;
80233;SDS011;69712;42.142;24.766;2023-07-29T08:36:36;10.90;;;4.20;;
80233;SDS011;69712;42.142;24.766;2023-07-29T08:39:02;7.70;;;4.05;;
80233;SDS011;69712;42.142;24.766;2023-07-29T08:41:37;9.65;;;3.97;;
80233;SDS011;69712;42.142;24.766;2023-07-29T08:44:18;5.25;;;3.90;;
80233;SDS011;69712;42.142;24.766;2023-07-29T08:46:51;6.72;;;3.95;;
80233;SDS011;69712;42.142;24.766;2023-07-29T08:49:19;7.82;;;4.07;;
80233;SDS011;69712;42.142;24.766;2023-07-29T08:51:47;6.55;;;3.72;;
80233;SDS011;69712;42.142;24.766;2023-07-29T08:54:14;6.93;;;3.80;;
80233;SDS011;69712;42.142;24.766;2023-07-29T08:56:41;9.02;;;4.05;;
80233;SDS011;69712;42.142;24.766;2023-07-29T08:59:07;7.80;;;4.00;;
80233;SDS011;69712;42.142;24.766;2023-07-29T09:01:34;8.48;;;4.30;;
80233;SDS011;69712;42.142;24.766;2023-07-29T09:04:00;7.13;;;3.80;;
80233;SDS011;69712;42.142;24.766;2023-07-29T09:06:25;4.35;;;3.60;;
80233;SDS011;69712;42.142;24.766;2023-07-29T09:08:53;5.38;;;3.67;;
80233;SDS011;69712;42.142;24.766;2023-07-29T09:11:21;5.10;;;4.00;;
80233;SDS011;69712;42.142;24.766;2023-07-29T09:13:47;4.13;;;3.72;;
80233;SDS011;69712;42.142;24.766;2023-07-29T09:16:13;6.40;;;3.80;;
80233;SDS011;69712;42.142;24.766;2023-07-29T09:18:39;4.20;;;3.65;;
80233;SDS011;69712;42.142;24.766;2023-07-29T09:21:05;6.75;;;3.70;;
80233;SDS011;69712;42.142;24.766;2023-07-29T09:23:44;4.68;;;3.40;;
80233;SDS011;69712;42.142;24.766;2023-07-29T09:26:10;4.63;;;3.58;;
80233;SDS011;69712;42.142;24.766;2023-07-29T09:28:37;7.20;;;3.85;;
80233;SDS011;69712;42.142;24.766;2023-07-29T09:31:04;5.40;;;3.35;;
80233;SDS011;69712;42.142;24.766;2023-07-29T09:33:33;7.10;;;3.42;;
80233;SDS011;69712;42.142;24.766;2023-07-29T09:36:02;5.03;;;3.60;;
80233;SDS011;69712;42.142;24.766;2023-07-29T09:38:37;3.97;;;3.40;;
80233;SDS011;69712;42.142;24.766;2023-07-29T09:41:03;7.80;;;3.47;;
80233;SDS011;69712;42.142;24.766;2023-07-29T09:43:29;5.65;;;3.65;;
80233;SDS011;69712;42.142;24.766;2023-07-29T09:45:59;4.25;;;3.70;;
80233;SDS011;69712;42.142;24.766;2023-07-29T09:48:33;6.72;;;3.65;;
80233;SDS011;69712;42.142;24.766;2023-07-29T09:51:01;4.70;;;3.50;;
80233;SDS011;69712;42.142;24.766;2023-07-29T09:53:39;5.13;;;3.60;;
80233;SDS011;69712;42.142;24.766;2023-07-29T09:56:09;5.65;;;4.50;;
80233;SDS011;69712;42.142;24.766;2023-07-29T09:58:35;5.47;;;3.70;;
80233;SDS011;69712;42.142;24.766;2023-07-29T10:01:03;4.47;;;3.30;;
80233;SDS011;69712;42.142;24.766;2023-07-29T10:03:32;4.40;;;3.15;;
80233;SDS011;69712;42.142;24.766;2023-07-29T10:06:00;4.07;;;3.50;;
80233;SDS011;69712;42.142;24.766;2023-07-29T10:08:28;3.90;;;3.30;;
80233;SDS011;69712;42.142;24.766;2023-07-29T10:10:57;5.85;;;3.30;;
80233;SDS011;69712;42.142;24.766;2023-07-29T10:13:24;4.93;;;3.47;;
80233;SDS011;69712;42.142;24.766;2023-07-29T10:15:51;4.80;;;3.67;;
80233;SDS011;69712;42.142;24.766;2023-07-29T10:18:19;4.78;;;3.45;;
80233;SDS011;69712;42.142;24.766;2023-07-29T10:20:47;5.13;;;3.80;;
80233;SDS011;69712;42.142;24.766;2023-07-29T10:23:15;5.55;;;3.90;;
80233;SDS011;69712;42.142;24.766;2023-07-29T10:25:46;6.22;;;4.25;;
80233;SDS011;69712;42.142;24.766;2023-07-29T10:28:15;6.45;;;4.00;;
80233;SDS011;69712;42.142;24.766;2023-07-29T10:30:42;8.52;;;4.47;;
80233;SDS011;69712;42.142;24.766;2023-07-29T10:33:09;8.43;;;4.13;;
80233;SDS011;69712;42.142;24.766;2023-07-29T10:35:35;6.93;;;3.80;;
80233;SDS011;69712;42.142;24.766;2023-07-29T10:38:02;4.28;;;3.70;;
80233;SDS011;69712;42.142;24.766;2023-07-29T10:40:46;7.18;;;4.72;;
80233;SDS011;69712;42.142;24.766;2023-07-29T10:43:13;5.57;;;3.33;;
80233;SDS011;69712;42.142;24.766;2023-07-29T10:45:57;6.05;;;3.90;;
80233;SDS011;69712;42.142;24.766;2023-07-29T10:48:44;5.65;;;3.80;;
80233;SDS011;69712;42.142;24.766;2023-07-29T10:53:47;4.70;;;3.70;;
80233;SDS011;69712;42.142;24.766;2023-07-29T10:56:13;4.32;;;3.65;;
80233;SDS011;69712;42.142;24.766;2023-07-29T10:58:51;5.20;;;3.38;;
80233;SDS011;69712;42.142;24.766;2023-07-29T11:01:29;4.38;;;3.97;;
80233;SDS011;69712;42.142;24.766;2023-07-29T11:09:41;7.60;;;3.55;;
80233;SDS011;69712;42.142;24.766;2023-07-29T11:15:19;4.13;;;3.30;;
80233;SDS011;69712;42.142;24.766;2023-07-29T11:17:48;3.50;;;3.13;;
80233;SDS011;69712;42.142;24.766;2023-07-29T11:20:22;4.70;;;3.72;;
80233;SDS011;69712;42.142;24.766;2023-07-29T11:22:52;6.85;;;3.53;;
80233;SDS011;69712;42.142;24.766;2023-07-29T11:25:24;4.37;;;3.43;;
80233;SDS011;69712;42.142;24.766;2023-07-29T11:27:52;7.35;;;3.38;;
80233;SDS011;69712;42.142;24.766;2023-07-29T11:30:19;6.38;;;3.13;;
80233;SDS011;69712;42.142;24.766;2023-07-29T11:32:45;3.30;;;3.00;;
80233;SDS011;69712;42.142;24.766;2023-07-29T11:35:18;3.50;;;3.20;;
80233;SDS011;69712;42.142;24.766;2023-07-29T11:37:45;3.95;;;3.30;;
80233;SDS011;69712;42.142;24.766;2023-07-29T11:40:16;3.63;;;3.30;;
80233;SDS011;69712;42.142;24.766;2023-07-29T11:42:43;3.97;;;3.40;;
80233;SDS011;69712;42.142;24.766;2023-07-29T11:45:10;3.67;;;3.25;;
80233;SDS011;69712;42.142;24.766;2023-07-29T11:47:37;4.07;;;2.95;;
80233;SDS011;69712;42.142;24.766;2023-07-29T11:50:06;5.25;;;4.43;;
80233;SDS011;69712;42.142;24.766;2023-07-29T11:52:39;4.53;;;3.50;;
80233;SDS011;69712;42.142;24.766;2023-07-29T11:55:07;4.13;;;2.72;;
80233;SDS011;69712;42.142;24.766;2023-07-29T11:57:34;4.28;;;2.90;;
80233;SDS011;69712;42.142;24.766;2023-07-29T12:00:04;2.85;;;2.58;;
80233;SDS011;69712;42.142;24.766;2023-07-29T12:02:32;4.00;;;3.00;;
80233;SDS011;69712;42.142;24.766;2023-07-29T12:04:59;3.35;;;2.83;;
80233;SDS011;69712;42.142;24.766;2023-07-29T12:07:27;3.25;;;2.85;;
80233;SDS011;69712;42.142;24.766;2023-07-29T12:09:53;3.30;;;2.60;;
80233;SDS011;69712;42.142;24.766;2023-07-29T12:12:19;4.90;;;2.72;;
80233;SDS011;69712;42.142;24.766;2023-07-29T12:14:47;3.95;;;2.80;;
80233;SDS011;69712;42.142;24.766;2023-07-29T12:17:14;3.83;;;2.70;;
80233;SDS011;69712;42.142;24.766;2023-07-29T12:19:40;3.25;;;2.60;;
80233;SDS011;69712;42.142;24.766;2023-07-29T12:22:07;2.70;;;2.50;;
80233;SDS011;69712;42.142;24.766;2023-07-29T12:24:35;2.95;;;2.60;;
80233;SDS011;69712;42.142;24.766;2023-07-29T12:27:03;3.53;;;2.58;;
80233;SDS011;69712;42.142;24.766;2023-07-29T12:29:29;2.72;;;2.53;;
80233;SDS011;69712;42.142;24.766;2023-07-29T12:34:25;3.70;;;2.30;;
80233;SDS011;69712;42.142;24.766;2023-07-29T12:36:56;3.85;;;2.20;;
80233;SDS011;69712;42.142;24.766;2023-07-29T12:39:29;3.22;;;2.00;;
80233;SDS011;69712;42.142;24.766;2023-07-29T12:41:57;2.50;;;2.25;;
80233;SDS011;69712;42.142;24.766;2023-07-29T12:44:25;13.20;;;2.33;;
80233;SDS011;69712;42.142;24.766;2023-07-29T12:46:54;2.88;;;2.17;;
80233;SDS011;69712;42.142;24.766;2023-07-29T12:49:20;3.15;;;1.92;;
80233;SDS011;69712;42.142;24.766;2023-07-29T12:51:46;2.20;;;2.00;;
80233;SDS011;69712;42.142;24.766;2023-07-29T12:54:11;1.70;;;1.60;;
80233;SDS011;69712;42.142;24.766;2023-07-29T12:56:37;2.40;;;1.83;;
80233;SDS011;69712;42.142;24.766;2023-07-29T12:59:05;2.25;;;1.85;;
80233;SDS011;69712;42.142;24.766;2023-07-29T13:01:31;1.70;;;1.60;;
80233;SDS011;69712;42.142;24.766;2023-07-29T13:03:56;1.60;;;1.50;;
80233;SDS011;69712;42.142;24.766;2023-07-29T13:06:22;1.80;;;1.45;;
80233;SDS011;69712;42.142;24.766;2023-07-29T13:08:48;1.35;;;1.25;;
80233;SDS011;69712;42.142;24.766;2023-07-29T13:11:15;2.10;;;1.40;;
80233;SDS011;69712;42.142;24.766;2023-07-29T13:13:41;2.45;;;1.08;;
80233;SDS011;69712;42.142;24.766;2023-07-29T13:16:07;1.33;;;1.08;;
80233;SDS011;69712;42.142;24.766;2023-07-29T13:18:33;1.30;;;1.10;;
80233;SDS011;69712;42.142;24.766;2023-07-29T13:20:59;1.73;;;1.10;;
80233;SDS011;69712;42.142;24.766;2023-07-29T13:23:25;1.80;;;1.17;;
80233;SDS011;69712;42.142;24.766;2023-07-29T13:25:51;2.38;;;1.23;;
80233;SDS011;69712;42.142;24.766;2023-07-29T13:28:17;2.58;;;1.10;;
80233;SDS011;69712;42.142;24.766;2023-07-29T13:30:44;1.38;;;1.30;;
80233;SDS011;69712;42.142;24.766;2023-07-29T13:33:09;3.10;;;1.55;;
80233;SDS011;69712;42.142;24.766;2023-07-29T13:35:35;1.92;;;1.67;;
80233;SDS011;69712;42.142;24.766;2023-07-29T13:38:01;2.63;;;1.33;;
80233;SDS011;69712;42.142;24.766;2023-07-29T13:40:27;1.90;;;1.70;;
80233;SDS011;69712;42.142;24.766;2023-07-29T13:42:53;4.35;;;1.70;;
80233;SDS011;69712;42.142;24.766;2023-07-29T13:45:19;1.80;;;1.65;;
80233;SDS011;69712;42.142;24.766;2023-07-29T13:47:45;2.17;;;1.67;;
80233;SDS011;69712;42.142;24.766;2023-07-29T13:50:10;2.65;;;1.70;;
80233;SDS011;69712;42.142;24.766;2023-07-29T13:52:37;2.35;;;1.58;;
80233;SDS011;69712;42.142;24.766;2023-07-29T13:55:03;3.25;;;1.60;;
80233;SDS011;69712;42.142;24.766;2023-07-29T13:57:30;2.00;;;1.83;;
80233;SDS011;69712;42.142;24.766;2023-07-29T13:59:56;1.60;;;1.50;;
80233;SDS011;69712;42.142;24.766;2023-07-29T14:02:22;1.77;;;1.67;;
80233;SDS011;69712;42.142;24.766;2023-07-29T14:04:48;1.70;;;1.60;;
80233;SDS011;69712;42.142;24.766;2023-07-29T14:07:13;1.73;;;1.50;;
80233;SDS011;69712;42.142;24.766;2023-07-29T14:09:39;2.92;;;1.60;;
80233;SDS011;69712;42.142;24.766;2023-07-29T14:12:05;1.40;;;1.30;;
80233;SDS011;69712;42.142;24.766;2023-07-29T14:14:31;1.70;;;1.60;;
80233;SDS011;69712;42.142;24.766;2023-07-29T14:16:57;3.05;;;1.90;;
80233;SDS011;69712;42.142;24.766;2023-07-29T14:19:23;1.60;;;1.50;;
80233;SDS011;69712;42.142;24.766;2023-07-29T14:21:49;1.95;;;1.35;;
80233;SDS011;69712;42.142;24.766;2023-07-29T14:24:14;1.70;;;1.60;;
80233;SDS011;69712;42.142;24.766;2023-07-29T14:26:41;1.77;;;1.50;;
80233;SDS011;69712;42.142;24.766;2023-07-29T14:29:07;1.73;;;1.58;;
80233;SDS011;69712;42.142;24.766;2023-07-29T14:31:33;1.55;;;1.45;;
80233;SDS011;69712;42.142;24.766;2023-07-29T14:33:58;2.42;;;1.52;;
80233;SDS011;69712;42.142;24.766;2023-07-29T14:36:25;2.25;;;1.50;;
80233;SDS011;69712;42.142;24.766;2023-07-29T14:38:51;2.90;;;1.50;;
80233;SDS011;69712;42.142;24.766;2023-07-29T14:41:17;1.70;;;1.60;;
80233;SDS011;69712;42.142;24.766;2023-07-29T14:43:43;1.80;;;1.50;;
80233;SDS011;69712;42.142;24.766;2023-07-29T14:46:08;1.52;;;1.42;;
80233;SDS011;69712;42.142;24.766;2023-07-29T14:48:34;1.80;;;1.70;;
80233;SDS011;69712;42.142;24.766;2023-07-29T14:51:00;1.90;;;1.80;;
80233;SDS011;69712;42.142;24.766;2023-07-29T14:53:25;2.03;;;1.80;;